Date,TemperatureHighF,TemperatureAvgF,TemperatureLowF,DewpointHighF,DewpointAvgF,DewpointLowF,HumidityHigh,HumidityAvg,HumidityLow,PressureMaxIn,PressureMinIn,WindSpeedMaxMPH,WindSpeedAvgMPH,GustSpeedMaxMPH,PrecipitationSumIn
2013-8-1,90,76,70,78,70,66,97,85,57,29.99,29.93,2,0,0,0.00
2013-8-2,94,73,64,73,67,62,97,83,47,30.03,29.97,2,0,0,0.00
2013-8-3,86,77,67,75,71,65,96,81,65,30.05,29.98,2,0,0,0.00
2013-8-4,90,77,69,76,70,64,96,80,57,30.07,29.99,2,0,0,0.00
2013-8-5,91,72,60,71,64,57,96,79,43,30.08,29.97,2,0,0,0.00
2013-8-6,85,75,68,75,70,66,94,84,65,30.00,29.94,4,0,0,0.00
2013-8-7,84,76,72,77,73,71,96,90,75,30.04,29.93,4,1,0,0.00
2013-8-8,86,74,70,79,72,68,96,92,77,30.04,29.97,3,0,0,0.00
2013-8-9,91,77,70,80,73,69,97,90,64,30.07,29.98,5,0,0,0.00
2013-8-10,91,77,71,79,73,70,97,89,66,30.14,30.06,5,0,0,0.00
2013-8-11,89,76,70,80,72,69,97,89,70,30.16,30.06,3,0,0,0.00
2013-8-12,79,42,68,77,2,-100,97,58,92,30.12,29.99,2,0,0,0.00
2013-8-13,-200,0,200,-100,-100,-100,0,0,100,30.00,29.88,3,0,0,0.00
2013-8-14,-200,0,200,-100,-100,-100,0,0,100,30.04,29.93,2,0,0,0.00
2013-8-15,59,0,59,57,-99,-100,92,1,92,30.09,30.01,6,0,0,0.00
2013-8-16,77,1,77,70,-99,-100,80,1,80,30.10,30.02,1,0,0,0.00
2013-8-17,69,1,68,68,-98,-100,96,1,96,30.14,30.08,2,0,0,0.00
2013-8-18,77,3,68,72,-93,-100,97,4,81,30.20,30.11,2,0,0,0.00
2013-8-22,-200,0,200,-100,-100,-100,0,0,100,30.09,30.05,0,0,0,0.00
2013-8-23,86,1,86,76,-99,-100,72,1,72,30.11,30.00,4,0,0,0.00
2013-8-24,-200,0,200,-100,-100,-100,0,0,100,30.24,30.08,1,0,0,0.00
2013-8-25,88,25,68,70,-47,-100,92,22,52,30.37,30.24,0,0,0,0.00
2013-8-26,86,21,67,70,-55,-100,90,19,58,30.32,30.14,1,0,0,0.00
2013-8-27,90,12,65,74,-74,-100,92,11,57,30.16,30.06,1,0,0,0.00
2013-8-28,94,69,74,77,43,-100,91,60,57,30.06,30.01,1,0,0,0.00
2013-8-29,90,20,73,78,-57,-100,91,20,65,30.05,29.95,2,0,0,0.00
2013-8-30,92,20,75,80,-57,-100,91,19,61,30.03,29.93,2,0,0,0.00
2013-8-31,93,21,76,79,-58,-100,88,18,59,29.99,29.86,3,0,0,0.00